Terminal Aerodrome Forecast
Issued by NWS

Current Version | Previous Version | Text Only | Print | Product List | Glossary Off
Versions: 1 2 3 4 5 6 7 8 9 10 11 12 13 14

000
FTUS41 KILN 191900 AAA
TAFLCK
TAF AMD
KLCK 191916Z 1919/2018 04010G18KT P6SM SKC
     FM200000 05005KT P6SM SKC
     FM201200 08005KT P6SM SKC
     FM201600 16006KT P6SM BKN250=

USA.gov is the U.S. government's official web portal to all federal, state and local government web resources and services.